Item Display Status Serial CT Sensor

Mooring Depth: 1 m

 

Deployed Sensor

  • Serial Number: 15356
  • NDBC Property Number: 40920
  • Start Date: 1/10/2023 (12:36:48 Z)
  • End Date: Currently Active
Water Temperature [°C]     6 entries per hour
Showing data from 4/4/2024 (15:30:00 Z) to 4/3/2024 (00:00:01 Z)
Previous Next [ Day | 3-Days | 7-Days ]
First Last
Prev [ Day | 3-Days | 7-Days ] Next
First Last

Start Time:     :
End Time:     :     
Time (in GMT) :00 :50 :40 :30 :20 :10
Previous Next [ Day | 3-Days | 7-Days ]
First Last
Prev [ Day | 3-Days | 7-Days ] Next
First Last


123 => good data
MM => data is determined as missing
-- => data not received/configured
Back to Top Back to Top
4/4/2024 16:00 to 15:10 -- -- -- 27.857 27.843 27.840
4/4/2024 15:00 to 14:10 27.841 27.859 27.858 27.852 27.855 --
4/4/2024 14:00 to 13:10 27.851 27.842 27.844 27.841 27.843 27.828
4/4/2024 13:00 to 12:10 27.829 27.822 27.827 27.820 27.820 27.818
4/4/2024 12:00 to 11:10 27.825 27.827 27.831 27.838 27.862 27.861
4/4/2024 11:00 to 10:10 27.850 27.860 27.869 27.866 27.874 27.855
4/4/2024 10:00 to 9:10 -- 27.876 -- 27.882 -- 27.885
4/4/2024 09:00 to 8:10 27.889 27.896 27.895 27.904 27.899 27.897
4/4/2024 08:00 to 7:10 27.919 27.926 27.955 27.955 27.960 27.956
4/4/2024 07:00 to 6:10 27.958 27.957 27.956 27.960 27.967 --
4/4/2024 06:00 to 5:10 27.959 27.965 -- 27.976 27.974 27.983
4/4/2024 05:00 to 4:10 -- 27.988 27.984 27.992 27.991 28.001
4/4/2024 04:00 to 3:10 28.005 -- 28.010 -- 28.017 --
4/4/2024 03:00 to 2:10 28.024 28.021 -- -- -- 28.005
4/4/2024 02:00 to 1:10 28.002 28.001 28.000 27.996 28.006 28.017
4/4/2024 01:00 to 0:10 28.015 28.027 -- 28.028 28.031 28.029
4/4/2024 00:00 to 23:10 28.036 28.046 28.048 28.049 28.053 28.064
4/3/2024 23:00 to 22:10 28.060 28.070 -- 28.093 28.099 --
4/3/2024 22:00 to 21:10 28.097 28.099 28.097 28.097 28.094 28.104
4/3/2024 21:00 to 20:10 28.096 28.094 28.094 28.094 28.097 28.090
4/3/2024 20:00 to 19:10 28.092 28.095 28.096 28.092 28.094 28.098
4/3/2024 19:00 to 18:10 28.089 28.088 28.085 28.087 28.084 28.076
4/3/2024 18:00 to 17:10 28.083 28.086 28.087 28.087 28.087 28.079
4/3/2024 17:00 to 16:10 28.087 28.083 28.085 28.086 28.080 28.075
4/3/2024 16:00 to 15:10 28.078 28.077 28.073 28.068 28.064 28.060
4/3/2024 15:00 to 14:10 28.065 28.067 28.066 28.066 28.063 28.056
4/3/2024 14:00 to 13:10 28.060 28.064 28.063 28.067 28.068 28.057
4/3/2024 13:00 to 12:10 28.062 28.061 28.055 28.056 28.059 28.046
4/3/2024 12:00 to 11:10 28.057 28.059 28.051 28.049 28.060 28.047
4/3/2024 11:00 to 10:10 28.061 28.065 28.061 28.058 28.058 28.051
4/3/2024 10:00 to 9:10 28.066 28.060 28.060 28.059 28.068 28.069
4/3/2024 09:00 to 8:10 28.067 28.065 28.060 28.061 28.071 28.065
4/3/2024 08:00 to 7:10 28.068 28.069 28.075 28.075 28.082 28.078
4/3/2024 07:00 to 6:10 28.075 28.079 28.091 28.089 28.098 28.091
4/3/2024 06:00 to 5:10 28.083 28.101 28.093 28.094 28.090 28.099
4/3/2024 05:00 to 4:10 28.097 28.099 28.092 28.100 28.097 28.095
4/3/2024 04:00 to 3:10 28.093 28.091 28.093 28.109 28.112 28.112
4/3/2024 03:00 to 2:10 -- -- 28.123 28.123 28.117 28.103
4/3/2024 02:00 to 1:10 28.092 28.095 28.110 28.104 28.106 28.102
4/3/2024 01:00 to 0:10 28.098 28.089 28.092 28.111 28.090 28.096

 

 

 

Conductivity [S/m]     6 entries per hour
Showing data from 5/15/2023 (00:00:00 Z) to 5/14/2023 (00:00:01 Z)
Previous Next [ Day | 3-Days | 7-Days ]
First Last
Prev [ Day | 3-Days | 7-Days ] Next
First Last

Start Time:     :
End Time:     :     
Time (in GMT) :00 :50 :40 :30 :20 :10
Previous Next [ Day | 3-Days | 7-Days ]
First Last
Prev [ Day | 3-Days | 7-Days ] Next
First Last


123 => good data
MM => data is determined as missing
-- => data not received/configured
Back to Top Back to Top
5/15/2023 00:00 to 23:10 5.52606 5.52687 5.52704 5.52778 5.52785 5.52865
5/14/2023 23:00 to 22:10 5.52924 5.52925 5.52969 5.53057 5.53113 5.53064
5/14/2023 22:00 to 21:10 5.53115 5.53138 5.53091 5.53127 5.53143 5.53129
5/14/2023 21:00 to 20:10 5.53280 5.53194 5.53203 5.53149 5.53217 5.53213
5/14/2023 20:00 to 19:10 5.53280 5.53207 5.53095 5.53017 5.53002 5.52926
5/14/2023 19:00 to 18:10 5.52968 5.52977 5.52827 5.52788 5.52655 5.52803
5/14/2023 18:00 to 17:10 5.52720 5.52548 5.52546 5.52539 5.52446 5.52383
5/14/2023 17:00 to 16:10 5.52362 5.52288 5.52192 5.52194 5.52136 5.52040
5/14/2023 16:00 to 15:10 5.52023 5.52014 5.51947 5.51946 5.51856 5.51812
5/14/2023 15:00 to 14:10 5.51789 5.51775 5.51712 5.51693 5.51689 5.51739
5/14/2023 14:00 to 13:10 5.51721 5.51720 5.51735 5.51649 5.51641 5.51661
5/14/2023 13:00 to 12:10 5.51688 5.51647 5.51533 5.51627 5.51630 5.51559
5/14/2023 12:00 to 11:10 5.51671 5.51698 5.51661 5.51562 5.51746 5.51701
5/14/2023 11:00 to 10:10 5.51661 5.51617 5.51743 5.51726 5.51799 5.51665
5/14/2023 10:00 to 9:10 5.51625 5.51704 5.51727 5.51791 5.51713 5.51818
5/14/2023 09:00 to 8:10 5.51669 5.51841 5.51802 5.51740 5.51745 5.51874
5/14/2023 08:00 to 7:10 5.51959 5.51873 5.51824 5.51845 5.51895 5.51874
5/14/2023 07:00 to 6:10 5.51952 5.51915 5.51857 5.51955 5.51906 5.51837
5/14/2023 06:00 to 5:10 5.51841 5.51968 5.51998 5.52044 5.51928 5.52005
5/14/2023 05:00 to 4:10 5.52031 5.51965 5.52033 5.52067 5.52122 5.52132
5/14/2023 04:00 to 3:10 5.52118 5.52044 5.52110 5.52096 5.52240 5.52203
5/14/2023 03:00 to 2:10 5.52168 5.52243 5.52321 5.52163 5.52244 5.52204
5/14/2023 02:00 to 1:10 5.52266 5.52200 5.52332 5.52208 5.52365 5.52381
5/14/2023 01:00 to 0:10 5.52312 5.52304 5.52353 5.52280 5.52477 5.52482

 

 

 

Salinity [psu]     6 entries per hour
Showing data from 5/15/2023 (00:00:00 Z) to 5/14/2023 (00:00:01 Z)
Previous Next [ Day | 3-Days | 7-Days ]
First Last
Prev [ Day | 3-Days | 7-Days ] Next
First Last

Start Time:     :
End Time:     :     
Time (in GMT) :00 :50 :40 :30 :20 :10
Previous Next [ Day | 3-Days | 7-Days ]
First Last
Prev [ Day | 3-Days | 7-Days ] Next
First Last


123 => good data
MM => data is determined as missing
-- => data not received/configured
Back to Top Back to Top
5/15/2023 00:00 to 23:10 35.01 35.01 35.01 35.01 35.01 35.01
5/14/2023 23:00 to 22:10 35.01 35.01 35.01 35.01 35.01 35.01
5/14/2023 22:00 to 21:10 35.02 35.02 35.01 35.02 35.02 35.02
5/14/2023 21:00 to 20:10 35.02 35.02 35.02 35.02 35.02 35.02
5/14/2023 20:00 to 19:10 35.02 35.02 35.02 35.02 35.02 35.02
5/14/2023 19:00 to 18:10 35.02 35.02 35.02 35.02 35.02 35.02
5/14/2023 18:00 to 17:10 35.02 35.02 35.02 35.02 35.02 35.02
5/14/2023 17:00 to 16:10 35.02 35.02 35.02 35.02 35.02 35.02
5/14/2023 16:00 to 15:10 35.02 35.02 35.02 35.02 35.02 35.01
5/14/2023 15:00 to 14:10 35.01 35.01 35.01 35.01 35.01 35.01
5/14/2023 14:00 to 13:10 35.01 35.01 35.01 35.01 35.01 35.01
5/14/2023 13:00 to 12:10 35.01 35.01 35.01 35.01 35.01 35.01
5/14/2023 12:00 to 11:10 35.01 35.01 35.01 35.01 35.01 35.01
5/14/2023 11:00 to 10:10 35.01 35.01 35.01 35.01 35.01 35.01
5/14/2023 10:00 to 9:10 35.01 35.01 35.01 35.01 35.01 35.01
5/14/2023 09:00 to 8:10 35.01 35.01 35.01 35.01 35.01 35.01
5/14/2023 08:00 to 7:10 35.01 35.01 35.00 35.00 35.00 35.01
5/14/2023 07:00 to 6:10 35.00 35.01 35.00 35.00 35.00 35.00
5/14/2023 06:00 to 5:10 35.01 35.01 35.00 35.00 35.00 35.00
5/14/2023 05:00 to 4:10 35.00 35.00 35.00 35.00 35.01 35.00
5/14/2023 04:00 to 3:10 35.00 35.01 35.01 35.00 35.01 35.00
5/14/2023 03:00 to 2:10 35.00 35.00 35.00 35.01 35.00 35.00
5/14/2023 02:00 to 1:10 35.00 35.00 35.00 35.00 35.00 35.00
5/14/2023 01:00 to 0:10 35.00 35.00 35.00 35.00 35.00 35.00